Time;durP1;ratioP1;P1;durP2;ratioP2;P2;SDS_P1;SDS_P2;PMS_P1;PMS_P2;Temp;Humidity;BMP_temperature;BMP_pressure;BME280_temperature;BME280_humidity;BME280_pressure;Samples;Min_cycle;Max_cycle;Signal;HPM_P1;HPM_P2
2022/01/10 00:00:52;;;;;;;16.55;10.40;;;0.70;99.90;;;;;;5053428;28;20053;-79
2022/01/10 00:03:19;;;;;;;21.88;11.50;;;0.80;99.90;;;;;;5053606;28;20493;-79
2022/01/10 00:05:46;;;;;;;19.05;10.15;;;0.80;99.90;;;;;;5053489;28;20071;-79
2022/01/10 00:08:14;;;;;;;23.67;12.52;;;0.70;99.90;;;;;;5053168;28;20106;-79
2022/01/10 00:10:43;;;;;;;17.45;11.57;;;0.80;99.90;;;;;;5054324;28;20041;-79
2022/01/10 00:13:10;;;;;;;22.90;13.00;;;0.90;99.90;;;;;;5053489;28;20049;-80
2022/01/10 00:15:37;;;;;;;20.80;12.43;;;1.00;99.90;;;;;;5052662;28;20079;-80
2022/01/10 00:18:03;;;;;;;27.98;12.70;;;1.00;99.90;;;;;;5053491;28;20056;-79
2022/01/10 00:20:30;;;;;;;18.13;10.55;;;1.00;99.90;;;;;;5053322;28;20124;-79
2022/01/10 00:22:57;;;;;;;21.75;10.82;;;1.00;99.90;;;;;;5053371;28;20052;-79
2022/01/10 00:25:24;;;;;;;20.38;12.10;;;1.00;99.90;;;;;;5054783;28;20508;-79
2022/01/10 00:27:53;;;;;;;18.23;10.95;;;1.00;99.90;;;;;;5054428;28;20557;-79
2022/01/10 00:30:22;;;;;;;21.55;11.38;;;1.00;99.90;;;;;;5054443;28;20512;-79
2022/01/10 00:32:50;;;;;;;16.65;10.77;;;1.00;99.90;;;;;;5054563;28;20602;-80
2022/01/10 00:35:17;;;;;;;17.25;10.60;;;1.00;99.90;;;;;;5053349;28;20053;-79
2022/01/10 00:37:45;;;;;;;19.67;9.57;;;1.10;99.90;;;;;;5052836;28;20140;-81
2022/01/10 00:40:15;;;;;;;14.68;9.75;;;1.10;99.90;;;;;;5053314;28;20057;-80
2022/01/10 00:42:44;;;;;;;14.00;9.35;;;1.10;99.90;;;;;;5052919;28;20136;-79
2022/01/10 00:45:17;;;;;;;20.73;10.65;;;1.10;99.90;;;;;;5054785;28;20053;-79
2022/01/10 00:47:48;;;;;;;20.27;11.10;;;1.00;99.90;;;;;;5053129;28;20041;-81
2022/01/10 00:50:16;;;;;;;15.55;9.30;;;1.00;99.90;;;;;;5052665;28;20410;-80
2022/01/10 00:52:43;;;;;;;14.82;9.38;;;1.00;99.90;;;;;;5052924;28;20045;-80
2022/01/10 00:55:10;;;;;;;12.00;8.05;;;1.00;99.90;;;;;;5053168;28;20045;-79
2022/01/10 00:57:37;;;;;;;12.70;8.77;;;1.10;99.90;;;;;;5053170;28;20056;-79
2022/01/10 01:00:07;;;;;;;14.57;8.45;;;1.00;99.90;;;;;;5054313;28;20083;-80
2022/01/10 01:02:34;;;;;;;13.05;7.93;;;1.00;99.90;;;;;;5054254;28;20135;-79
2022/01/10 01:05:06;;;;;;;12.75;7.90;;;1.10;99.90;;;;;;5054611;28;20075;-79
2022/01/10 01:07:33;;;;;;;9.93;7.32;;;1.20;99.90;;;;;;5053073;28;20542;-79
2022/01/10 01:12:56;;;;;;;12.20;7.10;;;1.10;99.90;;;;;;5054122;28;20414;-80
2022/01/10 01:15:26;;;;;;;10.77;7.13;;;1.10;99.90;;;;;;5052770;28;20048;-80
2022/01/10 01:18:21;;;;;;;12.32;7.65;;;1.10;99.90;;;;;;5052539;28;20049;-80
2022/01/10 01:26:01;;;;;;;10.77;6.50;;;0.90;99.90;;;;;;5054022;28;20147;-79
2022/01/10 01:28:29;;;;;;;13.45;8.30;;;0.90;99.90;;;;;;5052279;28;20487;-79
2022/01/10 01:30:56;;;;;;;15.52;7.68;;;1.00;99.90;;;;;;5053837;28;20044;-79
2022/01/10 01:33:24;;;;;;;19.50;9.52;;;1.00;99.90;;;;;;5057150;28;20056;-79
2022/01/10 01:35:52;;;;;;;14.48;9.40;;;1.00;99.90;;;;;;5055904;28;20049;-79
2022/01/10 01:38:19;;;;;;;16.20;10.13;;;1.00;99.90;;;;;;5056168;28;20077;-78
2022/01/10 01:41:36;;;;;;;29.98;11.07;;;0.90;99.90;;;;;;5056367;28;20357;-78
2022/01/10 01:43:36;;;;;;;22.83;10.77;;;0.80;99.90;;;;;;5056537;28;20646;-79
2022/01/10 01:46:03;;;;;;;25.67;12.45;;;0.80;99.90;;;;;;5057012;28;20053;-80
2022/01/10 01:48:30;;;;;;;22.55;12.63;;;1.00;99.90;;;;;;5057320;28;20088;-79
2022/01/10 01:50:56;;;;;;;15.98;10.18;;;1.00;99.90;;;;;;5055542;28;20136;-79
2022/01/10 01:53:23;;;;;;;17.35;9.93;;;1.00;99.90;;;;;;5056124;28;20429;-78
2022/01/10 01:55:50;;;;;;;16.27;9.18;;;1.10;99.90;;;;;;5055726;28;20413;-78
2022/01/10 01:58:17;;;;;;;15.80;9.05;;;1.00;99.90;;;;;;5056122;28;20132;-79
2022/01/10 02:00:44;;;;;;;15.73;9.52;;;1.10;99.90;;;;;;5055713;28;20136;-79
2022/01/10 02:03:11;;;;;;;19.05;9.68;;;1.10;99.90;;;;;;5057112;28;20049;-79
2022/01/10 02:05:37;;;;;;;17.48;9.60;;;1.10;99.90;;;;;;5057187;28;20059;-79
2022/01/10 02:08:04;;;;;;;14.25;8.18;;;1.10;99.90;;;;;;5055517;28;20041;-78
2022/01/10 02:10:31;;;;;;;16.42;8.93;;;1.10;99.90;;;;;;5057181;28;20091;-79
2022/01/10 02:12:57;;;;;;;13.57;8.48;;;1.20;99.90;;;;;;5056898;28;20092;-79
2022/01/10 02:15:47;;;;;;;12.20;8.18;;;1.10;99.90;;;;;;5055775;28;20052;-79
2022/01/10 02:18:18;;;;;;;9.88;6.88;;;1.20;99.90;;;;;;5055289;28;20048;-79
2022/01/10 02:20:46;;;;;;;15.40;7.72;;;1.20;99.90;;;;;;5055772;28;20052;-78
2022/01/10 02:23:17;;;;;;;14.73;7.60;;;1.20;99.90;;;;;;5063244;22;20045;-83
2022/01/10 02:25:45;;;;;;;12.90;7.40;;;1.20;99.90;;;;;;5045643;28;20105;-82
2022/01/10 02:28:12;;;;;;;11.85;7.18;;;1.20;99.90;;;;;;5045950;28;20077;-82
2022/01/10 02:30:39;;;;;;;11.98;7.45;;;1.20;99.90;;;;;;5045262;28;20088;-82
2022/01/10 02:33:06;;;;;;;11.55;6.88;;;1.20;99.90;;;;;;5046253;28;20041;-83
2022/01/10 02:35:41;;;;;;;10.27;6.45;;;1.10;99.90;;;;;;5045103;28;20073;-82
2022/01/10 02:38:08;;;;;;;6.85;5.97;;;1.10;99.90;;;;;;5045417;28;20502;-82
2022/01/10 02:40:35;;;;;;;13.23;8.75;;;0.90;99.90;;;;;;5045094;28;20081;-82
2022/01/10 02:43:07;;;;;;;12.68;7.70;;;0.80;99.90;;;;;;5045555;28;20474;-82
2022/01/10 02:45:34;;;;;;;15.98;8.05;;;0.60;99.90;;;;;;5046900;28;20486;-83
2022/01/10 02:48:01;;;;;;;15.23;8.63;;;0.50;99.90;;;;;;5045595;28;20069;-83
2022/01/10 02:50:27;;;;;;;16.83;8.25;;;0.30;99.90;;;;;;5045572;28;20049;-82
2022/01/10 02:52:54;;;;;;;15.50;7.50;;;0.30;99.90;;;;;;5044991;28;20083;-82
2022/01/10 02:55:21;;;;;;;15.90;8.38;;;0.20;99.90;;;;;;5046278;28;20529;-82
2022/01/10 02:57:48;;;;;;;23.15;9.32;;;0.10;99.90;;;;;;5046094;28;20049;-82
2022/01/10 03:00:18;;;;;;;19.10;9.98;;;0.00;99.90;;;;;;5045183;28;20498;-82
2022/01/10 03:02:49;;;;;;;19.10;8.27;;;0.00;99.90;;;;;;5044872;28;20073;-82
2022/01/10 03:05:17;;;;;;;21.02;9.32;;;0.10;99.90;;;;;;5043956;28;20072;-82
2022/01/10 03:07:44;;;;;;;12.70;8.90;;;0.00;99.90;;;;;;5044979;28;20069;-82
2022/01/10 03:10:11;;;;;;;14.85;8.68;;;0.00;99.90;;;;;;5044065;28;20117;-81
2022/01/10 03:12:38;;;;;;;16.08;9.68;;;0.10;99.90;;;;;;5044004;28;20065;-82
2022/01/10 03:15:07;;;;;;;16.70;9.88;;;0.20;99.90;;;;;;5044096;28;20080;-82
2022/01/10 03:17:36;;;;;;;19.35;9.88;;;0.20;99.90;;;;;;5044911;28;20453;-83
2022/01/10 03:20:08;;;;;;;14.98;9.23;;;0.40;99.90;;;;;;5042610;28;20073;-83
2022/01/10 03:22:35;;;;;;;11.90;7.68;;;0.50;99.90;;;;;;5044750;28;20072;-83
2022/01/10 03:25:03;;;;;;;17.80;10.23;;;0.50;99.90;;;;;;5043096;28;20574;-83
2022/01/10 03:27:29;;;;;;;14.05;9.57;;;0.50;99.90;;;;;;5042960;28;20124;-83
2022/01/10 03:29:56;;;;;;;15.35;9.18;;;0.50;99.90;;;;;;5043690;28;20069;-82
2022/01/10 03:32:23;;;;;;;14.90;10.18;;;0.50;99.90;;;;;;5043853;28;20113;-82
2022/01/10 03:34:50;;;;;;;18.15;9.90;;;0.60;99.90;;;;;;5043131;28;20069;-83
2022/01/10 03:37:17;;;;;;;14.40;9.13;;;0.60;99.90;;;;;;5043767;28;20087;-83
2022/01/10 03:39:44;;;;;;;14.45;8.10;;;0.60;99.90;;;;;;5042643;28;20120;-82
2022/01/10 03:42:12;;;;;;;13.32;8.40;;;0.60;99.90;;;;;;5043839;28;20140;-82
2022/01/10 03:44:39;;;;;;;13.43;8.18;;;0.60;99.90;;;;;;5044083;28;20073;-83
2022/01/10 03:47:07;;;;;;;10.80;7.55;;;0.60;99.90;;;;;;5041994;28;20053;-82
2022/01/10 03:49:33;;;;;;;14.82;8.35;;;0.60;99.90;;;;;;5042497;28;20509;-82
2022/01/10 03:52:00;;;;;;;15.85;8.27;;;0.70;99.90;;;;;;5042004;28;20042;-83
2022/01/10 03:54:27;;;;;;;15.75;8.07;;;0.70;99.90;;;;;;5041329;28;20072;-83
2022/01/10 03:56:54;;;;;;;12.52;7.72;;;0.70;99.90;;;;;;5042254;28;20050;-82
2022/01/10 03:59:20;;;;;;;14.95;7.72;;;0.70;99.90;;;;;;5043241;28;20137;-82
2022/01/10 04:01:50;;;;;;;14.65;7.95;;;0.80;99.90;;;;;;5034372;28;20168;-81
2022/01/10 04:04:17;;;;;;;13.70;7.65;;;0.70;99.90;;;;;;5032061;28;20057;-81
2022/01/10 04:06:44;;;;;;;14.18;7.80;;;0.80;99.90;;;;;;5033192;28;20608;-81
2022/01/10 04:09:11;;;;;;;10.48;7.38;;;0.80;99.90;;;;;;5036383;28;20104;-83
2022/01/10 04:11:38;;;;;;;15.93;8.25;;;0.80;99.90;;;;;;5041613;28;20132;-82
2022/01/10 04:14:05;;;;;;;15.45;6.95;;;0.80;99.90;;;;;;5041764;28;20085;-82
2022/01/10 04:16:31;;;;;;;15.63;7.80;;;0.80;99.90;;;;;;5042314;28;20053;-82
2022/01/10 04:18:58;;;;;;;13.55;8.45;;;0.80;99.90;;;;;;5041891;28;20049;-83
2022/01/10 04:21:25;;;;;;;13.80;8.27;;;0.90;99.90;;;;;;5041614;28;20054;-82
2022/01/10 04:23:51;;;;;;;12.98;8.82;;;0.90;99.90;;;;;;5041840;28;20088;-82
2022/01/10 04:26:18;;;;;;;13.48;10.73;;;0.90;99.90;;;;;;5041487;28;20133;-83
2022/01/10 04:28:45;;;;;;;18.17;10.60;;;1.00;99.90;;;;;;5041906;28;20065;-83
2022/01/10 04:31:12;;;;;;;20.02;9.13;;;1.00;99.90;;;;;;5041401;28;20076;-82
2022/01/10 04:33:39;;;;;;;15.43;10.13;;;0.90;99.90;;;;;;5041933;28;20046;-82
2022/01/10 04:36:06;;;;;;;15.52;8.73;;;1.00;99.90;;;;;;5040846;28;20107;-83
2022/01/10 04:38:34;;;;;;;14.07;8.55;;;0.90;99.90;;;;;;5041677;28;20077;-83
2022/01/10 04:41:03;;;;;;;19.17;9.80;;;0.90;99.90;;;;;;5042665;28;20057;-82
2022/01/10 04:43:30;;;;;;;15.90;9.30;;;0.80;99.90;;;;;;5041294;28;20060;-83
2022/01/10 04:46:00;;;;;;;16.10;9.18;;;0.90;99.90;;;;;;5041424;28;20080;-82
2022/01/10 04:48:27;;;;;;;14.38;8.50;;;1.00;99.90;;;;;;5041564;28;20045;-83
2022/01/10 04:53:33;;;;;;;13.85;8.40;;;1.00;99.90;;;;;;5042924;28;20081;-82
2022/01/10 04:56:00;;;;;;;14.75;9.63;;;1.00;99.90;;;;;;5041449;28;20084;-83
2022/01/10 04:58:27;;;;;;;15.70;9.85;;;0.90;99.90;;;;;;5042382;28;20109;-83
2022/01/10 05:00:55;;;;;;;11.48;9.07;;;0.90;99.90;;;;;;5042858;28;20132;-82
2022/01/10 05:03:22;;;;;;;18.27;9.52;;;0.90;99.90;;;;;;5040568;28;20053;-82
2022/01/10 05:05:53;;;;;;;15.75;9.48;;;1.00;99.90;;;;;;5042506;28;20080;-83
2022/01/10 05:08:23;;;;;;;13.82;8.25;;;1.10;99.90;;;;;;5045512;28;20077;-83
2022/01/10 05:10:51;;;;;;;13.75;7.90;;;1.00;99.90;;;;;;5044384;28;20073;-83
2022/01/10 05:13:18;;;;;;;18.65;11.40;;;1.10;99.90;;;;;;5044528;28;20049;-82
2022/01/10 05:15:46;;;;;;;19.55;15.13;;;1.10;99.90;;;;;;5044251;28;20069;-83
2022/01/10 05:18:14;;;;;;;14.45;8.98;;;1.00;99.90;;;;;;5044694;28;20049;-82
2022/01/10 05:20:41;;;;;;;18.33;8.80;;;1.10;99.90;;;;;;5044360;28;20085;-82
2022/01/10 05:23:07;;;;;;;14.63;8.95;;;1.00;99.90;;;;;;5045658;28;20049;-82
2022/01/10 05:25:39;;;;;;;13.85;8.15;;;1.10;99.90;;;;;;5044923;28;20049;-82
2022/01/10 05:28:09;;;;;;;10.65;7.38;;;1.00;99.90;;;;;;5044700;28;20077;-83
2022/01/10 05:30:37;;;;;;;12.20;7.00;;;1.10;99.90;;;;;;5043857;28;20080;-82
2022/01/10 05:33:06;;;;;;;15.35;8.52;;;1.10;99.90;;;;;;5043719;28;20506;-83
2022/01/10 05:35:32;;;;;;;15.27;7.97;;;1.20;99.90;;;;;;5045580;28;20072;-82
2022/01/10 05:37:59;;;;;;;11.85;7.88;;;1.20;99.90;;;;;;5045639;28;20050;-83
2022/01/10 05:40:26;;;;;;;12.30;7.95;;;1.20;99.90;;;;;;5045654;28;20073;-82
2022/01/10 05:42:53;;;;;;;20.98;8.75;;;1.30;99.90;;;;;;5045041;28;20045;-82
2022/01/10 05:45:19;;;;;;;11.90;7.20;;;1.30;99.90;;;;;;5045193;28;20069;-82
2022/01/10 05:47:46;;;;;;;12.13;7.95;;;1.20;99.90;;;;;;5043628;28;20084;-83
2022/01/10 05:50:19;;;;;;;13.00;7.70;;;1.20;99.90;;;;;;5043903;28;20128;-82
2022/01/10 05:52:46;;;;;;;13.82;6.85;;;1.20;99.90;;;;;;5044265;28;20085;-82
2022/01/10 05:55:13;;;;;;;16.17;8.00;;;1.30;99.90;;;;;;5043286;28;20473;-83
2022/01/10 05:57:40;;;;;;;13.82;7.78;;;1.30;99.90;;;;;;5043772;28;20049;-82
2022/01/10 06:00:08;;;;;;;11.95;7.85;;;1.20;99.90;;;;;;5043796;28;20055;-82
2022/01/10 06:02:35;;;;;;;21.45;9.18;;;1.30;99.90;;;;;;5043395;28;20107;-83
2022/01/10 06:05:08;;;;;;;21.70;9.15;;;1.20;99.90;;;;;;5042905;28;20119;-82
2022/01/10 06:07:38;;;;;;;17.60;7.60;;;1.30;99.90;;;;;;5045734;28;20136;-83
2022/01/10 06:10:06;;;;;;;11.45;7.53;;;1.30;99.90;;;;;;5043163;28;20072;-82
2022/01/10 06:12:33;;;;;;;14.32;8.45;;;1.40;99.90;;;;;;5042966;28;20105;-83
2022/01/10 06:14:59;;;;;;;12.18;9.02;;;1.40;99.90;;;;;;5044437;28;20132;-83
2022/01/10 06:17:26;;;;;;;12.85;7.97;;;1.30;99.90;;;;;;5042678;28;20073;-83
2022/01/10 06:19:53;;;;;;;14.18;8.70;;;1.20;99.90;;;;;;5043253;28;20049;-82
2022/01/10 06:22:20;;;;;;;16.15;8.25;;;1.30;99.90;;;;;;5042450;28;20513;-83
2022/01/10 06:24:47;;;;;;;14.32;7.72;;;1.40;99.90;;;;;;5042663;28;20077;-82
2022/01/10 06:27:14;;;;;;;12.48;7.65;;;1.30;99.90;;;;;;5043442;28;20144;-82
2022/01/10 06:29:40;;;;;;;12.05;8.02;;;1.30;99.90;;;;;;5044529;28;20083;-82
2022/01/10 06:32:08;;;;;;;9.38;6.97;;;1.30;99.90;;;;;;5042648;28;20049;-82
2022/01/10 06:34:34;;;;;;;13.63;7.90;;;1.30;99.90;;;;;;5042573;28;20414;-82
2022/01/10 06:37:02;;;;;;;13.15;8.00;;;1.20;99.90;;;;;;5042573;28;20494;-82
2022/01/10 06:39:29;;;;;;;19.17;8.30;;;1.20;99.90;;;;;;5044031;28;20059;-82
2022/01/10 06:41:57;;;;;;;13.10;8.52;;;1.10;99.90;;;;;;5041605;28;20052;-82
2022/01/10 06:44:25;;;;;;;11.10;7.93;;;1.10;99.90;;;;;;5041702;28;20068;-82
2022/01/10 06:46:52;;;;;;;21.35;9.60;;;1.10;99.90;;;;;;5041852;28;20067;-82
2022/01/10 06:49:19;;;;;;;15.23;7.93;;;1.00;99.90;;;;;;5041384;28;20120;-82
2022/01/10 06:51:46;;;;;;;23.50;9.88;;;1.00;99.90;;;;;;5043103;28;20041;-82
2022/01/10 06:54:13;;;;;;;22.00;11.27;;;0.90;99.90;;;;;;5041547;28;20088;-83
2022/01/10 06:56:40;;;;;;;69.50;39.63;;;0.80;99.90;;;;;;5041557;28;20046;-83
2022/01/10 06:59:08;;;;;;;57.00;33.15;;;0.90;99.90;;;;;;5041311;28;20511;-83
2022/01/10 07:01:35;;;;;;;38.78;23.52;;;1.00;99.90;;;;;;5041398;28;20073;-83
2022/01/10 07:04:05;;;;;;;16.80;11.57;;;1.00;99.90;;;;;;5041637;28;20088;-82
2022/01/10 07:06:32;;;;;;;26.38;15.15;;;1.10;99.90;;;;;;5043066;28;20049;-82
2022/01/10 07:08:58;;;;;;;30.58;18.63;;;1.20;99.90;;;;;;5040722;28;20124;-81
2022/01/10 07:11:25;;;;;;;30.77;17.48;;;1.30;99.90;;;;;;5041443;28;20069;-82
2022/01/10 07:13:53;;;;;;;24.02;13.10;;;1.40;99.90;;;;;;5040620;28;20136;-82
2022/01/10 07:16:20;;;;;;;14.52;10.27;;;1.40;99.90;;;;;;5041875;28;20092;-82
2022/01/10 07:18:47;;;;;;;18.52;12.10;;;1.40;99.90;;;;;;5041170;28;20052;-82
2022/01/10 07:21:14;;;;;;;14.63;9.95;;;1.40;99.90;;;;;;5042753;28;20053;-82
2022/01/10 07:23:41;;;;;;;16.85;9.48;;;1.40;99.90;;;;;;5040047;28;20474;-82
2022/01/10 07:26:08;;;;;;;19.13;10.05;;;1.40;99.90;;;;;;5040107;28;20109;-83
2022/01/10 07:28:35;;;;;;;20.48;10.15;;;1.40;99.90;;;;;;5041094;28;20052;-82
2022/01/10 07:31:02;;;;;;;16.80;9.15;;;1.50;99.90;;;;;;5041361;28;20517;-82
2022/01/10 07:33:28;;;;;;;16.17;9.45;;;1.50;99.90;;;;;;5041314;28;20056;-82
2022/01/10 07:35:59;;;;;;;16.90;9.93;;;1.50;99.90;;;;;;5042016;28;20060;-81
2022/01/10 07:38:26;;;;;;;23.00;10.27;;;1.50;99.90;;;;;;5040264;28;20073;-82
2022/01/10 07:40:52;;;;;;;36.58;19.13;;;1.50;99.90;;;;;;5042167;28;20136;-83
2022/01/10 07:43:19;;;;;;;26.08;15.30;;;1.50;99.90;;;;;;5040503;28;20049;-82
2022/01/10 07:45:46;;;;;;;20.70;12.55;;;1.60;99.90;;;;;;5042005;28;20137;-82
2022/01/10 07:48:13;;;;;;;25.08;13.85;;;1.70;99.90;;;;;;5040645;28;20054;-82
2022/01/10 07:50:40;;;;;;;27.08;10.38;;;1.70;99.90;;;;;;5039776;28;20113;-82
2022/01/10 07:53:06;;;;;;;23.67;11.38;;;1.80;99.90;;;;;;5040357;28;20136;-82
2022/01/10 07:55:33;;;;;;;15.73;10.73;;;1.80;99.90;;;;;;5041441;28;20137;-83
2022/01/10 07:58:00;;;;;;;17.23;10.68;;;1.90;99.90;;;;;;5039755;28;20128;-82
2022/01/10 08:00:27;;;;;;;21.25;12.80;;;1.90;99.90;;;;;;5039910;28;20509;-82
2022/01/10 08:02:53;;;;;;;19.17;13.20;;;1.90;99.90;;;;;;5039588;28;20589;-83
2022/01/10 08:05:20;;;;;;;21.38;13.20;;;2.00;99.90;;;;;;5041877;28;20387;-82
2022/01/10 08:07:47;;;;;;;20.63;12.55;;;2.00;99.90;;;;;;5039834;28;20084;-82
2022/01/10 08:10:14;;;;;;;24.63;14.43;;;1.90;99.90;;;;;;5039458;28;20045;-82
2022/01/10 08:12:41;;;;;;;24.48;16.23;;;2.00;99.90;;;;;;5041605;28;20045;-82
2022/01/10 08:15:08;;;;;;;24.55;17.90;;;2.00;99.90;;;;;;5040809;28;20081;-82
2022/01/10 08:17:35;;;;;;;28.05;15.60;;;2.00;99.90;;;;;;5039492;28;20073;-81
2022/01/10 08:20:04;;;;;;;18.73;11.02;;;2.10;99.90;;;;;;5038718;28;20144;-82
2022/01/10 08:22:30;;;;;;;15.45;9.95;;;2.10;99.90;;;;;;5037166;28;20089;-79
2022/01/10 08:24:57;;;;;;;20.02;11.35;;;2.20;99.90;;;;;;5037289;28;20053;-79
2022/01/10 08:27:24;;;;;;;19.50;13.20;;;2.20;99.90;;;;;;5036385;28;20084;-79
2022/01/10 08:29:51;;;;;;;21.90;13.30;;;2.20;99.90;;;;;;5037334;28;20049;-80
2022/01/10 08:32:18;;;;;;;17.33;10.55;;;2.30;99.90;;;;;;5036915;28;20085;-79
2022/01/10 08:34:45;;;;;;;25.13;14.00;;;2.30;99.90;;;;;;5037131;28;20049;-79
2022/01/10 08:37:12;;;;;;;19.50;12.77;;;2.40;99.90;;;;;;5037033;28;20115;-79
2022/01/10 08:39:39;;;;;;;28.00;14.95;;;2.40;99.90;;;;;;5037567;28;20077;-79
2022/01/10 08:42:07;;;;;;;18.98;12.32;;;2.40;99.90;;;;;;5040172;28;20053;-79
2022/01/10 08:44:33;;;;;;;22.80;11.88;;;2.40;99.90;;;;;;5040356;28;20144;-79
2022/01/10 08:47:01;;;;;;;23.30;13.80;;;2.60;99.90;;;;;;5040928;28;20136;-79
2022/01/10 08:49:27;;;;;;;24.35;13.40;;;2.60;99.90;;;;;;5041130;28;20041;-79
2022/01/10 08:51:55;;;;;;;26.17;14.68;;;2.60;99.90;;;;;;5039735;28;20077;-79
2022/01/10 08:54:22;;;;;;;34.28;18.08;;;2.70;99.90;;;;;;5041438;28;20128;-79
2022/01/10 08:56:50;;;;;;;31.95;14.32;;;3.00;99.90;;;;;;5039640;28;20059;-79
2022/01/10 08:59:18;;;;;;;28.98;17.83;;;3.20;99.90;;;;;;5039031;28;20502;-79
2022/01/10 09:01:46;;;;;;;24.60;15.30;;;3.30;99.90;;;;;;5039048;28;20108;-80
2022/01/10 09:04:18;;;;;;;26.88;16.42;;;3.50;99.90;;;;;;5038776;28;20505;-79
2022/01/10 09:06:51;;;;;;;20.77;13.68;;;3.60;99.90;;;;;;5039416;28;20091;-79
2022/01/10 09:09:19;;;;;;;17.67;11.90;;;3.90;99.90;;;;;;5040366;28;20077;-79
2022/01/10 09:11:46;;;;;;;16.13;11.38;;;3.90;99.90;;;;;;5040374;28;20105;-79
2022/01/10 09:14:13;;;;;;;20.35;12.32;;;3.90;99.90;;;;;;5040581;28;20514;-79
2022/01/10 09:16:41;;;;;;;25.67;13.07;;;3.90;99.90;;;;;;5040492;28;20045;-79
2022/01/10 09:19:08;;;;;;;26.98;15.98;;;4.00;99.90;;;;;;5039331;28;20128;-78
2022/01/10 09:21:36;;;;;;;22.35;13.32;;;4.00;99.90;;;;;;5040508;28;20088;-79
2022/01/10 09:24:03;;;;;;;17.88;11.02;;;4.00;99.90;;;;;;5040110;28;20096;-79
2022/01/10 09:26:30;;;;;;;16.15;9.00;;;4.00;99.90;;;;;;5040313;28;20050;-79
2022/01/10 09:28:57;;;;;;;24.50;13.13;;;4.00;99.90;;;;;;5038270;28;20052;-78
2022/01/10 09:31:24;;;;;;;38.85;18.75;;;4.10;99.90;;;;;;5040297;28;20117;-79
2022/01/10 09:33:54;;;;;;;24.17;13.43;;;4.10;99.90;;;;;;5039350;28;20136;-79
2022/01/10 09:36:25;;;;;;;21.88;13.63;;;4.00;99.90;;;;;;5040995;28;20141;-79
2022/01/10 09:38:53;;;;;;;21.27;13.73;;;4.00;99.90;;;;;;5039250;28;20514;-80
2022/01/10 09:41:21;;;;;;;16.17;12.13;;;3.90;99.90;;;;;;5040870;28;20132;-79
2022/01/10 09:43:51;;;;;;;16.95;12.80;;;3.80;99.90;;;;;;5038955;28;20132;-79
2022/01/10 09:46:19;;;;;;;17.33;11.57;;;3.80;99.90;;;;;;5039061;28;20461;-79
2022/01/10 09:48:46;;;;;;;17.60;10.68;;;3.80;99.90;;;;;;5038181;28;20105;-78
2022/01/10 09:51:24;;;;;;;16.17;11.77;;;3.80;99.90;;;;;;5038361;28;20114;-78
2022/01/10 09:53:51;;;;;;;17.55;12.45;;;3.90;99.90;;;;;;5037649;28;20049;-80
2022/01/10 09:56:18;;;;;;;18.73;12.90;;;4.10;99.90;;;;;;5039909;28;20128;-78
2022/01/10 09:58:45;;;;;;;21.88;13.27;;;4.20;99.90;;;;;;5038352;28;20060;-80
2022/01/10 10:01:16;;;;;;;16.45;10.43;;;4.20;99.90;;;;;;5039783;28;20506;-79
2022/01/10 10:03:45;;;;;;;19.00;12.35;;;4.10;99.90;;;;;;5039740;28;20494;-79
2022/01/10 10:06:12;;;;;;;18.58;12.15;;;4.10;99.90;;;;;;5039787;28;20056;-79
2022/01/10 10:08:39;;;;;;;21.25;12.80;;;4.20;99.90;;;;;;5039709;28;20107;-79
2022/01/10 10:11:08;;;;;;;25.10;14.70;;;4.30;99.90;;;;;;5037780;28;20418;-79
2022/01/10 10:13:41;;;;;;;27.55;16.77;;;4.40;99.90;;;;;;5037734;28;20077;-80
2022/01/10 10:16:13;;;;;;;15.68;10.25;;;4.50;99.90;;;;;;5037790;28;20081;-79
2022/01/10 10:18:41;;;;;;;17.02;11.07;;;4.60;99.90;;;;;;5037619;28;20048;-80
2022/01/10 10:21:16;;;;;;;20.15;12.20;;;4.60;99.90;;;;;;5037445;28;20136;-79
2022/01/10 10:23:46;;;;;;;24.13;14.57;;;4.60;99.90;;;;;;5037417;28;20084;-80
2022/01/10 10:26:23;;;;;;;30.85;16.95;;;4.60;99.90;;;;;;5037760;28;20463;-79
2022/01/10 10:28:52;;;;;;;37.63;18.20;;;4.40;99.90;;;;;;5038582;28;20399;-81
2022/01/10 10:31:28;;;;;;;22.92;12.32;;;4.20;99.90;;;;;;5036839;28;20108;-79
2022/01/10 10:33:57;;;;;;;18.55;12.13;;;4.20;99.90;;;;;;5038742;28;20045;-79
2022/01/10 10:36:25;;;;;;;23.73;13.40;;;4.00;99.90;;;;;;5038637;28;20137;-80
2022/01/10 10:38:55;;;;;;;29.52;16.40;;;3.80;99.90;;;;;;5037209;28;20045;-80
2022/01/10 10:41:23;;;;;;;30.63;17.50;;;3.90;99.90;;;;;;5037382;28;20053;-79
2022/01/10 10:43:54;;;;;;;30.52;17.98;;;3.90;99.90;;;;;;5038359;28;20053;-79
2022/01/10 10:46:26;;;;;;;22.23;12.75;;;3.90;99.90;;;;;;5039462;28;20053;-79
2022/01/10 10:48:59;;;;;;;24.40;12.60;;;3.90;99.90;;;;;;5037010;28;20128;-80
2022/01/10 10:51:27;;;;;;;;;;;4.00;99.90;;;;;;5037130;28;20077;-80
2022/01/10 10:54:22;;;;;;;17.40;9.23;;;4.30;99.90;;;;;;5036555;28;20448;-80
2022/01/10 10:56:49;;;;;;;15.93;10.57;;;4.40;99.90;;;;;;5034599;28;20077;-79
2022/01/10 10:59:15;;;;;;;19.35;11.90;;;4.50;99.90;;;;;;5036592;28;20124;-79
2022/01/10 11:01:43;;;;;;;16.20;9.93;;;4.40;99.90;;;;;;5036089;28;20452;-79
2022/01/10 11:04:11;;;;;;;33.95;11.18;;;4.30;99.90;;;;;;5035178;28;20045;-79
2022/01/10 11:06:40;;;;;;;17.15;9.77;;;4.30;99.90;;;;;;5036268;28;20080;-80
2022/01/10 11:09:12;;;;;;;18.88;11.02;;;4.30;99.90;;;;;;5036522;28;20069;-80
2022/01/10 11:11:43;;;;;;;17.67;9.60;;;4.40;99.90;;;;;;5038100;28;20144;-80
2022/01/10 11:14:13;;;;;;;17.17;9.00;;;4.40;99.90;;;;;;5037104;28;20113;-79
2022/01/10 11:16:46;;;;;;;15.10;8.88;;;4.50;99.90;;;;;;5036128;28;20455;-79
2022/01/10 11:19:19;;;;;;;16.07;8.87;;;4.60;99.90;;;;;;5037160;28;20084;-79
2022/01/10 11:22:02;;;;;;;14.88;6.72;;;4.60;99.90;;;;;;5035848;28;20080;-80
2022/01/10 11:24:53;;;;;;;9.40;6.85;;;4.60;99.90;;;;;;5035588;28;20132;-80
2022/01/10 11:27:34;;;;;;;12.82;8.80;;;4.70;99.90;;;;;;5037062;28;20093;-80
2022/01/10 11:30:29;;;;;;;18.23;9.93;;;4.70;99.90;;;;;;5036757;28;20061;-80
2022/01/10 11:33:17;;;;;;;19.00;12.35;;;4.70;99.90;;;;;;5037133;28;20124;-80
2022/01/10 11:35:54;;;;;;;25.42;15.48;;;4.70;99.90;;;;;;5035621;28;20049;-81
2022/01/10 11:38:33;;;;;;;30.23;17.55;;;4.80;99.90;;;;;;5037286;28;20052;-80
2022/01/10 11:41:08;;;;;;;22.58;13.35;;;4.80;99.90;;;;;;5035446;28;20085;-80
2022/01/10 11:44:06;;;;;;;19.70;11.75;;;4.80;99.90;;;;;;5035150;28;20466;-80
2022/01/10 11:46:44;;;;;;;21.38;13.07;;;4.80;99.90;;;;;;5035552;28;20046;-80
2022/01/10 11:49:21;;;;;;;23.50;14.05;;;4.80;99.90;;;;;;5034959;28;20046;-79
2022/01/10 11:51:51;;;;;;;22.08;13.30;;;4.90;99.90;;;;;;5036366;28;20060;-80
2022/01/10 11:54:22;;;;;;;15.48;10.77;;;5.00;99.90;;;;;;5035088;28;20080;-80
2022/01/10 11:56:52;;;;;;;15.60;10.18;;;5.10;99.90;;;;;;5036148;28;20455;-79
2022/01/10 11:59:30;;;;;;;16.60;9.63;;;5.20;99.90;;;;;;5035279;28;20056;-80
2022/01/10 12:02:04;;;;;;;19.77;8.70;;;5.30;99.90;;;;;;5034440;28;20049;-80
2022/01/10 12:04:37;;;;;;;15.00;9.20;;;5.50;99.90;;;;;;5036575;28;20490;-80
2022/01/10 12:07:08;;;;;;;12.70;8.50;;;5.70;99.90;;;;;;5034708;28;20489;-79
2022/01/10 12:09:35;;;;;;;13.65;8.48;;;5.70;99.90;;;;;;5034256;28;20141;-80
2022/01/10 12:12:10;;;;;;;17.50;9.40;;;5.70;99.90;;;;;;5034453;28;20051;-80
2022/01/10 12:14:39;;;;;;;14.60;9.15;;;5.60;99.90;;;;;;5034350;28;20104;-79
2022/01/10 12:17:08;;;;;;;19.50;10.48;;;5.60;99.90;;;;;;5034146;28;20081;-80
2022/01/10 12:19:36;;;;;;;23.52;12.73;;;5.50;99.90;;;;;;5034250;28;20049;-79
2022/01/10 12:22:07;;;;;;;22.13;11.57;;;5.10;99.90;;;;;;5034048;28;20089;-80
2022/01/10 12:24:35;;;;;;;19.05;10.75;;;5.10;99.90;;;;;;5036020;28;20148;-79
2022/01/10 12:27:06;;;;;;;21.80;11.23;;;5.00;99.90;;;;;;5034346;28;20041;-80
2022/01/10 12:29:33;;;;;;;23.27;10.93;;;5.10;99.90;;;;;;5033905;28;20088;-80
2022/01/10 12:32:00;;;;;;;24.38;13.10;;;4.90;99.90;;;;;;5033761;28;20508;-80
2022/01/10 12:34:27;;;;;;;36.92;22.58;;;4.80;99.90;;;;;;5035748;28;20046;-80
2022/01/10 12:36:54;;;;;;;38.95;23.50;;;4.80;99.90;;;;;;5035454;28;20049;-80
2022/01/10 12:39:26;;;;;;;30.00;17.90;;;4.90;99.90;;;;;;5034513;28;20046;-80
2022/01/10 12:41:56;;;;;;;30.10;15.57;;;4.90;99.90;;;;;;5033474;28;20326;-79
2022/01/10 12:44:24;;;;;;;24.45;13.10;;;5.10;99.90;;;;;;5034123;28;20132;-79
2022/01/10 12:46:51;;;;;;;18.65;10.55;;;5.20;99.90;;;;;;5033793;28;20565;-80
2022/01/10 12:49:18;;;;;;;19.48;9.32;;;5.30;99.90;;;;;;5035938;28;20046;-80
2022/01/10 12:51:49;;;;;;;14.13;8.27;;;5.30;99.90;;;;;;5034217;28;20052;-80
2022/01/10 12:54:22;;;;;;;17.85;8.68;;;5.30;99.90;;;;;;5036265;28;20049;-80
2022/01/10 12:56:50;;;;;;;12.47;8.67;;;5.30;99.90;;;;;;5035635;28;20045;-80
2022/01/10 12:59:23;;;;;;;20.52;9.82;;;5.20;99.90;;;;;;5033594;28;20057;-79
2022/01/10 13:01:52;;;;;;;21.30;11.03;;;5.00;99.90;;;;;;5032633;28;20554;-79